sensor_id;sensor_type;location;lat;lon;timestamp;P1;durP1;ratioP1;P2;durP2;ratioP2
66169;SDS011;66757;44.024;20.456;2023-03-15T00:02:00;158.55;;;84.57;;
66169;SDS011;66757;44.024;20.456;2023-03-15T00:07:19;134.75;;;69.65;;
66169;SDS011;66757;44.024;20.456;2023-03-15T00:09:50;181.38;;;90.00;;
66169;SDS011;66757;44.024;20.456;2023-03-15T00:12:15;131.85;;;69.40;;
66169;SDS011;66757;44.024;20.456;2023-03-15T00:14:41;129.18;;;65.38;;
66169;SDS011;66757;44.024;20.456;2023-03-15T00:17:07;116.13;;;60.42;;
66169;SDS011;66757;44.024;20.456;2023-03-15T00:19:33;116.70;;;59.58;;
66169;SDS011;66757;44.024;20.456;2023-03-15T00:24:51;107.88;;;52.83;;
66169;SDS011;66757;44.024;20.456;2023-03-15T00:27:17;102.00;;;51.00;;
66169;SDS011;66757;44.024;20.456;2023-03-15T00:29:42;103.10;;;53.45;;
66169;SDS011;66757;44.024;20.456;2023-03-15T00:32:08;156.20;;;76.38;;
66169;SDS011;66757;44.024;20.456;2023-03-15T00:34:34;145.32;;;72.43;;
66169;SDS011;66757;44.024;20.456;2023-03-15T00:37:00;150.68;;;74.55;;
66169;SDS011;66757;44.024;20.456;2023-03-15T00:39:27;172.90;;;84.68;;
66169;SDS011;66757;44.024;20.456;2023-03-15T00:41:52;128.32;;;62.88;;
66169;SDS011;66757;44.024;20.456;2023-03-15T00:44:21;126.65;;;64.53;;
66169;SDS011;66757;44.024;20.456;2023-03-15T00:46:46;134.07;;;65.55;;
66169;SDS011;66757;44.024;20.456;2023-03-15T00:49:11;109.97;;;54.25;;
66169;SDS011;66757;44.024;20.456;2023-03-15T00:51:37;111.93;;;56.42;;
66169;SDS011;66757;44.024;20.456;2023-03-15T00:54:02;118.38;;;59.28;;
66169;SDS011;66757;44.024;20.456;2023-03-15T00:56:27;108.28;;;54.90;;
66169;SDS011;66757;44.024;20.456;2023-03-15T00:58:56;110.55;;;54.28;;
66169;SDS011;66757;44.024;20.456;2023-03-15T01:01:22;108.22;;;52.67;;
66169;SDS011;66757;44.024;20.456;2023-03-15T01:03:48;107.75;;;56.80;;
66169;SDS011;66757;44.024;20.456;2023-03-15T01:06:14;113.20;;;56.90;;
66169;SDS011;66757;44.024;20.456;2023-03-15T01:08:40;114.88;;;57.85;;
66169;SDS011;66757;44.024;20.456;2023-03-15T01:11:06;110.13;;;54.97;;
66169;SDS011;66757;44.024;20.456;2023-03-15T01:13:32;104.30;;;51.80;;
66169;SDS011;66757;44.024;20.456;2023-03-15T01:15:57;105.72;;;53.20;;
66169;SDS011;66757;44.024;20.456;2023-03-15T01:18:23;97.03;;;51.50;;
66169;SDS011;66757;44.024;20.456;2023-03-15T01:20:48;108.82;;;54.30;;
66169;SDS011;66757;44.024;20.456;2023-03-15T01:23:13;110.78;;;58.53;;
66169;SDS011;66757;44.024;20.456;2023-03-15T01:25:39;108.32;;;56.42;;
66169;SDS011;66757;44.024;20.456;2023-03-15T01:28:04;105.10;;;56.17;;
66169;SDS011;66757;44.024;20.456;2023-03-15T01:30:30;106.93;;;52.47;;
66169;SDS011;66757;44.024;20.456;2023-03-15T01:32:55;100.55;;;50.92;;
66169;SDS011;66757;44.024;20.456;2023-03-15T01:35:20;104.80;;;49.85;;
66169;SDS011;66757;44.024;20.456;2023-03-15T01:37:48;107.03;;;50.88;;
66169;SDS011;66757;44.024;20.456;2023-03-15T01:40:13;99.90;;;49.38;;
66169;SDS011;66757;44.024;20.456;2023-03-15T01:42:51;102.38;;;50.22;;
66169;SDS011;66757;44.024;20.456;2023-03-15T01:48:01;107.43;;;53.00;;
66169;SDS011;66757;44.024;20.456;2023-03-15T01:50:26;99.78;;;51.30;;
66169;SDS011;66757;44.024;20.456;2023-03-15T01:52:51;103.85;;;52.45;;
66169;SDS011;66757;44.024;20.456;2023-03-15T01:55:18;102.10;;;50.80;;
66169;SDS011;66757;44.024;20.456;2023-03-15T02:00:15;93.60;;;47.10;;
66169;SDS011;66757;44.024;20.456;2023-03-15T02:02:42;96.07;;;48.90;;
66169;SDS011;66757;44.024;20.456;2023-03-15T02:05:10;101.18;;;51.08;;
66169;SDS011;66757;44.024;20.456;2023-03-15T02:07:38;93.72;;;48.50;;
66169;SDS011;66757;44.024;20.456;2023-03-15T02:10:08;92.93;;;47.75;;
66169;SDS011;66757;44.024;20.456;2023-03-15T02:12:39;95.20;;;51.05;;
66169;SDS011;66757;44.024;20.456;2023-03-15T02:15:06;101.90;;;54.95;;
66169;SDS011;66757;44.024;20.456;2023-03-15T02:17:49;125.95;;;63.83;;
66169;SDS011;66757;44.024;20.456;2023-03-15T02:22:45;90.05;;;45.53;;
66169;SDS011;66757;44.024;20.456;2023-03-15T02:27:36;82.75;;;42.15;;
66169;SDS011;66757;44.024;20.456;2023-03-15T02:30:04;80.40;;;42.25;;
66169;SDS011;66757;44.024;20.456;2023-03-15T02:32:29;78.95;;;40.10;;
66169;SDS011;66757;44.024;20.456;2023-03-15T02:34:55;87.57;;;44.42;;
66169;SDS011;66757;44.024;20.456;2023-03-15T02:37:20;76.80;;;41.33;;
66169;SDS011;66757;44.024;20.456;2023-03-15T02:39:46;71.97;;;37.33;;
66169;SDS011;66757;44.024;20.456;2023-03-15T02:42:13;64.40;;;33.38;;
66169;SDS011;66757;44.024;20.456;2023-03-15T02:44:38;71.90;;;38.58;;
66169;SDS011;66757;44.024;20.456;2023-03-15T02:47:26;73.30;;;38.83;;
66169;SDS011;66757;44.024;20.456;2023-03-15T02:49:52;69.35;;;35.15;;
66169;SDS011;66757;44.024;20.456;2023-03-15T02:52:20;99.68;;;52.63;;
66169;SDS011;66757;44.024;20.456;2023-03-15T02:54:46;112.00;;;59.53;;
66169;SDS011;66757;44.024;20.456;2023-03-15T02:57:12;123.13;;;66.30;;
66169;SDS011;66757;44.024;20.456;2023-03-15T02:59:38;91.53;;;47.88;;
66169;SDS011;66757;44.024;20.456;2023-03-15T03:02:03;86.72;;;45.90;;
66169;SDS011;66757;44.024;20.456;2023-03-15T03:04:29;72.50;;;38.75;;
66169;SDS011;66757;44.024;20.456;2023-03-15T03:06:54;71.43;;;38.45;;
66169;SDS011;66757;44.024;20.456;2023-03-15T03:09:19;77.30;;;42.50;;
66169;SDS011;66757;44.024;20.456;2023-03-15T03:11:45;67.60;;;36.92;;
66169;SDS011;66757;44.024;20.456;2023-03-15T03:14:10;68.35;;;34.33;;
66169;SDS011;66757;44.024;20.456;2023-03-15T03:16:39;71.43;;;35.97;;
66169;SDS011;66757;44.024;20.456;2023-03-15T03:19:05;65.63;;;35.00;;
66169;SDS011;66757;44.024;20.456;2023-03-15T03:21:30;70.82;;;35.80;;
66169;SDS011;66757;44.024;20.456;2023-03-15T03:23:56;69.60;;;36.90;;
66169;SDS011;66757;44.024;20.456;2023-03-15T03:26:21;71.05;;;35.78;;
66169;SDS011;66757;44.024;20.456;2023-03-15T03:28:52;78.00;;;38.55;;
66169;SDS011;66757;44.024;20.456;2023-03-15T03:31:19;68.63;;;34.50;;
66169;SDS011;66757;44.024;20.456;2023-03-15T03:33:45;66.40;;;35.25;;
66169;SDS011;66757;44.024;20.456;2023-03-15T03:36:11;74.90;;;37.63;;
66169;SDS011;66757;44.024;20.456;2023-03-15T03:38:39;85.15;;;41.03;;
66169;SDS011;66757;44.024;20.456;2023-03-15T03:41:04;88.22;;;43.20;;
66169;SDS011;66757;44.024;20.456;2023-03-15T03:43:29;73.57;;;39.40;;
66169;SDS011;66757;44.024;20.456;2023-03-15T03:45:55;65.75;;;32.72;;
66169;SDS011;66757;44.024;20.456;2023-03-15T03:48:20;60.85;;;31.80;;
66169;SDS011;66757;44.024;20.456;2023-03-15T03:50:45;136.32;;;72.93;;
66169;SDS011;66757;44.024;20.456;2023-03-15T03:53:13;90.40;;;50.60;;
66169;SDS011;66757;44.024;20.456;2023-03-15T03:55:38;65.72;;;34.35;;
66169;SDS011;66757;44.024;20.456;2023-03-15T03:58:03;36.20;;;19.02;;
66169;SDS011;66757;44.024;20.456;2023-03-15T04:00:30;72.65;;;39.20;;
66169;SDS011;66757;44.024;20.456;2023-03-15T04:02:55;42.67;;;22.70;;
66169;SDS011;66757;44.024;20.456;2023-03-15T04:05:20;46.00;;;25.58;;
66169;SDS011;66757;44.024;20.456;2023-03-15T04:07:46;39.80;;;19.33;;
66169;SDS011;66757;44.024;20.456;2023-03-15T04:10:11;28.30;;;15.75;;
66169;SDS011;66757;44.024;20.456;2023-03-15T04:12:41;30.65;;;17.10;;
66169;SDS011;66757;44.024;20.456;2023-03-15T04:15:07;32.80;;;17.58;;
66169;SDS011;66757;44.024;20.456;2023-03-15T04:17:32;73.13;;;39.85;;
66169;SDS011;66757;44.024;20.456;2023-03-15T04:19:58;33.42;;;18.05;;
66169;SDS011;66757;44.024;20.456;2023-03-15T04:22:26;51.50;;;25.63;;
66169;SDS011;66757;44.024;20.456;2023-03-15T04:24:51;62.25;;;30.30;;
66169;SDS011;66757;44.024;20.456;2023-03-15T04:27:17;77.13;;;39.03;;
66169;SDS011;66757;44.024;20.456;2023-03-15T04:29:42;71.63;;;35.20;;
66169;SDS011;66757;44.024;20.456;2023-03-15T04:32:08;68.00;;;30.98;;
66169;SDS011;66757;44.024;20.456;2023-03-15T04:34:33;64.53;;;30.92;;
66169;SDS011;66757;44.024;20.456;2023-03-15T04:37:03;59.58;;;27.23;;
66169;SDS011;66757;44.024;20.456;2023-03-15T04:39:28;60.53;;;29.65;;
66169;SDS011;66757;44.024;20.456;2023-03-15T04:41:55;72.95;;;34.33;;
66169;SDS011;66757;44.024;20.456;2023-03-15T04:44:20;55.65;;;26.60;;
66169;SDS011;66757;44.024;20.456;2023-03-15T04:46:45;33.30;;;16.58;;
66169;SDS011;66757;44.024;20.456;2023-03-15T04:49:11;26.65;;;11.23;;
66169;SDS011;66757;44.024;20.456;2023-03-15T04:51:36;22.67;;;9.05;;
66169;SDS011;66757;44.024;20.456;2023-03-15T04:54:01;19.55;;;9.30;;
66169;SDS011;66757;44.024;20.456;2023-03-15T04:56:27;26.15;;;11.80;;
66169;SDS011;66757;44.024;20.456;2023-03-15T04:58:53;22.92;;;10.52;;
66169;SDS011;66757;44.024;20.456;2023-03-15T05:01:18;21.52;;;8.93;;
66169;SDS011;66757;44.024;20.456;2023-03-15T05:03:43;25.85;;;11.27;;
66169;SDS011;66757;44.024;20.456;2023-03-15T05:06:09;44.17;;;19.42;;
66169;SDS011;66757;44.024;20.456;2023-03-15T05:08:34;44.85;;;18.23;;
66169;SDS011;66757;44.024;20.456;2023-03-15T05:11:02;29.92;;;15.27;;
66169;SDS011;66757;44.024;20.456;2023-03-15T05:13:28;33.13;;;14.93;;
66169;SDS011;66757;44.024;20.456;2023-03-15T05:15:54;35.67;;;12.85;;
66169;SDS011;66757;44.024;20.456;2023-03-15T05:18:19;27.55;;;12.27;;
66169;SDS011;66757;44.024;20.456;2023-03-15T05:20:45;35.40;;;14.75;;
66169;SDS011;66757;44.024;20.456;2023-03-15T05:23:11;28.35;;;12.77;;
66169;SDS011;66757;44.024;20.456;2023-03-15T05:25:37;30.95;;;14.55;;
66169;SDS011;66757;44.024;20.456;2023-03-15T05:28:03;24.50;;;11.50;;
66169;SDS011;66757;44.024;20.456;2023-03-15T05:30:29;28.83;;;12.02;;
66169;SDS011;66757;44.024;20.456;2023-03-15T05:32:55;26.23;;;12.30;;
66169;SDS011;66757;44.024;20.456;2023-03-15T05:35:20;31.48;;;13.32;;
66169;SDS011;66757;44.024;20.456;2023-03-15T05:37:48;23.70;;;11.25;;
66169;SDS011;66757;44.024;20.456;2023-03-15T05:40:13;24.05;;;10.90;;
66169;SDS011;66757;44.024;20.456;2023-03-15T05:42:39;28.45;;;10.80;;
66169;SDS011;66757;44.024;20.456;2023-03-15T05:45:05;62.25;;;23.95;;
66169;SDS011;66757;44.024;20.456;2023-03-15T05:47:31;128.23;;;49.50;;
66169;SDS011;66757;44.024;20.456;2023-03-15T05:49:56;87.85;;;38.28;;
66169;SDS011;66757;44.024;20.456;2023-03-15T05:52:22;55.10;;;24.70;;
66169;SDS011;66757;44.024;20.456;2023-03-15T05:54:48;48.05;;;20.35;;
66169;SDS011;66757;44.024;20.456;2023-03-15T05:57:13;56.72;;;23.52;;
66169;SDS011;66757;44.024;20.456;2023-03-15T05:59:40;39.95;;;18.27;;
66169;SDS011;66757;44.024;20.456;2023-03-15T06:02:05;51.50;;;23.40;;
66169;SDS011;66757;44.024;20.456;2023-03-15T06:04:31;65.43;;;25.77;;
66169;SDS011;66757;44.024;20.456;2023-03-15T06:06:57;46.83;;;21.92;;
66169;SDS011;66757;44.024;20.456;2023-03-15T06:09:22;61.40;;;24.88;;
66169;SDS011;66757;44.024;20.456;2023-03-15T06:11:47;61.60;;;25.52;;
66169;SDS011;66757;44.024;20.456;2023-03-15T06:14:13;72.90;;;29.60;;
66169;SDS011;66757;44.024;20.456;2023-03-15T06:16:38;69.32;;;32.05;;
66169;SDS011;66757;44.024;20.456;2023-03-15T06:19:04;77.47;;;37.67;;
66169;SDS011;66757;44.024;20.456;2023-03-15T06:21:29;74.25;;;36.63;;
66169;SDS011;66757;44.024;20.456;2023-03-15T06:23:55;70.80;;;33.45;;
66169;SDS011;66757;44.024;20.456;2023-03-15T06:26:20;60.40;;;29.42;;
66169;SDS011;66757;44.024;20.456;2023-03-15T06:28:47;59.45;;;27.67;;
66169;SDS011;66757;44.024;20.456;2023-03-15T06:31:13;55.92;;;27.52;;
66169;SDS011;66757;44.024;20.456;2023-03-15T06:33:38;58.55;;;29.90;;
66169;SDS011;66757;44.024;20.456;2023-03-15T06:36:05;73.53;;;33.17;;
66169;SDS011;66757;44.024;20.456;2023-03-15T06:38:30;77.57;;;37.95;;
66169;SDS011;66757;44.024;20.456;2023-03-15T06:40:56;90.38;;;45.05;;
66169;SDS011;66757;44.024;20.456;2023-03-15T06:43:25;85.00;;;41.42;;
66169;SDS011;66757;44.024;20.456;2023-03-15T06:45:50;81.00;;;40.72;;
66169;SDS011;66757;44.024;20.456;2023-03-15T06:48:17;95.97;;;40.13;;
66169;SDS011;66757;44.024;20.456;2023-03-15T06:50:43;59.17;;;30.15;;
66169;SDS011;66757;44.024;20.456;2023-03-15T06:53:08;55.28;;;25.05;;
66169;SDS011;66757;44.024;20.456;2023-03-15T06:55:34;54.95;;;23.00;;
66169;SDS011;66757;44.024;20.456;2023-03-15T06:58:00;38.17;;;20.20;;
66169;SDS011;66757;44.024;20.456;2023-03-15T07:00:25;40.63;;;22.15;;
66169;SDS011;66757;44.024;20.456;2023-03-15T07:02:50;54.20;;;30.63;;
66169;SDS011;66757;44.024;20.456;2023-03-15T07:05:15;15.15;;;8.73;;
66169;SDS011;66757;44.024;20.456;2023-03-15T07:07:41;19.52;;;10.63;;
66169;SDS011;66757;44.024;20.456;2023-03-15T07:10:06;15.82;;;9.13;;
66169;SDS011;66757;44.024;20.456;2023-03-15T07:12:32;16.02;;;8.23;;
66169;SDS011;66757;44.024;20.456;2023-03-15T07:14:57;11.05;;;6.15;;
66169;SDS011;66757;44.024;20.456;2023-03-15T07:17:22;14.57;;;8.38;;
66169;SDS011;66757;44.024;20.456;2023-03-15T07:19:48;12.38;;;8.13;;
66169;SDS011;66757;44.024;20.456;2023-03-15T07:22:14;12.88;;;9.27;;
66169;SDS011;66757;44.024;20.456;2023-03-15T07:24:39;14.45;;;9.82;;
66169;SDS011;66757;44.024;20.456;2023-03-15T07:27:05;29.38;;;10.80;;
66169;SDS011;66757;44.024;20.456;2023-03-15T07:29:30;23.48;;;11.77;;
66169;SDS011;66757;44.024;20.456;2023-03-15T07:31:55;20.98;;;12.43;;
66169;SDS011;66757;44.024;20.456;2023-03-15T07:34:22;27.95;;;13.07;;
66169;SDS011;66757;44.024;20.456;2023-03-15T07:36:47;19.60;;;12.60;;
66169;SDS011;66757;44.024;20.456;2023-03-15T07:39:12;25.90;;;13.27;;
66169;SDS011;66757;44.024;20.456;2023-03-15T07:41:39;23.05;;;15.10;;
66169;SDS011;66757;44.024;20.456;2023-03-15T07:44:04;22.42;;;14.48;;
66169;SDS011;66757;44.024;20.456;2023-03-15T07:46:29;24.90;;;15.43;;
66169;SDS011;66757;44.024;20.456;2023-03-15T07:48:55;29.50;;;17.90;;
66169;SDS011;66757;44.024;20.456;2023-03-15T07:51:20;20.45;;;13.20;;
66169;SDS011;66757;44.024;20.456;2023-03-15T07:53:45;18.80;;;11.77;;
66169;SDS011;66757;44.024;20.456;2023-03-15T07:56:11;26.10;;;11.90;;
66169;SDS011;66757;44.024;20.456;2023-03-15T07:58:36;24.05;;;13.60;;
66169;SDS011;66757;44.024;20.456;2023-03-15T08:01:01;18.45;;;11.90;;
66169;SDS011;66757;44.024;20.456;2023-03-15T08:03:27;19.00;;;13.27;;
66169;SDS011;66757;44.024;20.456;2023-03-15T08:05:52;22.35;;;15.25;;
66169;SDS011;66757;44.024;20.456;2023-03-15T08:08:18;23.55;;;16.55;;
66169;SDS011;66757;44.024;20.456;2023-03-15T08:10:43;21.40;;;15.00;;
66169;SDS011;66757;44.024;20.456;2023-03-15T08:13:09;18.58;;;14.25;;
66169;SDS011;66757;44.024;20.456;2023-03-15T08:15:35;20.27;;;13.52;;
66169;SDS011;66757;44.024;20.456;2023-03-15T08:18:00;20.67;;;15.40;;
66169;SDS011;66757;44.024;20.456;2023-03-15T08:20:27;22.33;;;15.93;;
66169;SDS011;66757;44.024;20.456;2023-03-15T08:22:52;21.58;;;15.05;;
66169;SDS011;66757;44.024;20.456;2023-03-15T08:25:19;17.63;;;11.13;;
66169;SDS011;66757;44.024;20.456;2023-03-15T08:27:45;17.42;;;10.88;;
66169;SDS011;66757;44.024;20.456;2023-03-15T08:30:12;15.98;;;10.48;;
66169;SDS011;66757;44.024;20.456;2023-03-15T08:32:42;11.60;;;8.18;;
66169;SDS011;66757;44.024;20.456;2023-03-15T08:35:08;16.52;;;9.85;;
66169;SDS011;66757;44.024;20.456;2023-03-15T08:37:36;16.17;;;11.55;;
66169;SDS011;66757;44.024;20.456;2023-03-15T08:40:01;17.48;;;11.02;;
66169;SDS011;66757;44.024;20.456;2023-03-15T08:42:33;20.08;;;15.05;;
66169;SDS011;66757;44.024;20.456;2023-03-15T08:44:58;20.58;;;14.77;;
66169;SDS011;66757;44.024;20.456;2023-03-15T08:47:26;20.05;;;14.27;;
66169;SDS011;66757;44.024;20.456;2023-03-15T08:49:51;26.00;;;18.58;;
66169;SDS011;66757;44.024;20.456;2023-03-15T08:52:17;21.38;;;16.38;;
66169;SDS011;66757;44.024;20.456;2023-03-15T08:54:43;28.02;;;19.58;;
66169;SDS011;66757;44.024;20.456;2023-03-15T08:57:08;26.90;;;18.60;;
66169;SDS011;66757;44.024;20.456;2023-03-15T08:59:33;31.13;;;21.50;;
66169;SDS011;66757;44.024;20.456;2023-03-15T09:01:59;34.50;;;22.58;;
66169;SDS011;66757;44.024;20.456;2023-03-15T09:04:26;37.35;;;23.67;;
66169;SDS011;66757;44.024;20.456;2023-03-15T09:06:51;36.53;;;24.40;;
66169;SDS011;66757;44.024;20.456;2023-03-15T09:09:18;30.35;;;19.13;;
66169;SDS011;66757;44.024;20.456;2023-03-15T09:11:44;42.53;;;27.45;;
66169;SDS011;66757;44.024;20.456;2023-03-15T09:14:09;36.88;;;23.95;;
66169;SDS011;66757;44.024;20.456;2023-03-15T09:16:35;29.55;;;19.80;;
66169;SDS011;66757;44.024;20.456;2023-03-15T09:19:01;28.67;;;18.48;;
66169;SDS011;66757;44.024;20.456;2023-03-15T09:21:26;30.80;;;19.42;;
66169;SDS011;66757;44.024;20.456;2023-03-15T09:23:52;34.97;;;23.25;;
66169;SDS011;66757;44.024;20.456;2023-03-15T09:26:18;37.65;;;24.88;;
66169;SDS011;66757;44.024;20.456;2023-03-15T09:28:43;34.45;;;22.88;;
66169;SDS011;66757;44.024;20.456;2023-03-15T09:31:08;31.33;;;22.73;;
66169;SDS011;66757;44.024;20.456;2023-03-15T09:33:34;29.38;;;19.58;;
66169;SDS011;66757;44.024;20.456;2023-03-15T09:35:59;30.20;;;21.48;;
66169;SDS011;66757;44.024;20.456;2023-03-15T09:38:24;30.63;;;20.02;;
66169;SDS011;66757;44.024;20.456;2023-03-15T09:40:50;34.20;;;22.73;;
66169;SDS011;66757;44.024;20.456;2023-03-15T09:46:15;25.63;;;20.15;;
66169;SDS011;66757;44.024;20.456;2023-03-15T09:51:15;36.95;;;25.30;;
66169;SDS011;66757;44.024;20.456;2023-03-15T09:54:07;21.10;;;17.35;;
66169;SDS011;66757;44.024;20.456;2023-03-15T09:56:34;21.48;;;17.65;;
66169;SDS011;66757;44.024;20.456;2023-03-15T09:59:01;16.75;;;13.93;;
66169;SDS011;66757;44.024;20.456;2023-03-15T10:01:30;17.60;;;14.15;;
66169;SDS011;66757;44.024;20.456;2023-03-15T10:03:56;19.83;;;15.00;;
66169;SDS011;66757;44.024;20.456;2023-03-15T10:06:28;15.60;;;13.23;;
66169;SDS011;66757;44.024;20.456;2023-03-15T10:08:59;18.65;;;13.85;;
66169;SDS011;66757;44.024;20.456;2023-03-15T10:16:53;13.52;;;10.15;;
66169;SDS011;66757;44.024;20.456;2023-03-15T10:26:57;11.55;;;9.43;;
66169;SDS011;66757;44.024;20.456;2023-03-15T10:29:23;11.23;;;9.23;;
66169;SDS011;66757;44.024;20.456;2023-03-15T10:31:49;10.90;;;8.52;;
66169;SDS011;66757;44.024;20.456;2023-03-15T10:34:16;13.35;;;9.90;;
66169;SDS011;66757;44.024;20.456;2023-03-15T10:36:43;15.65;;;10.50;;
66169;SDS011;66757;44.024;20.456;2023-03-15T10:39:09;12.27;;;9.13;;
66169;SDS011;66757;44.024;20.456;2023-03-15T10:41:36;11.45;;;9.43;;
66169;SDS011;66757;44.024;20.456;2023-03-15T10:44:04;13.52;;;11.10;;
66169;SDS011;66757;44.024;20.456;2023-03-15T10:46:29;14.10;;;11.02;;
66169;SDS011;66757;44.024;20.456;2023-03-15T10:48:56;14.32;;;10.90;;
66169;SDS011;66757;44.024;20.456;2023-03-15T10:51:30;23.35;;;12.38;;
66169;SDS011;66757;44.024;20.456;2023-03-15T10:54:15;15.10;;;10.00;;
66169;SDS011;66757;44.024;20.456;2023-03-15T10:56:45;11.05;;;8.73;;
66169;SDS011;66757;44.024;20.456;2023-03-15T10:59:16;13.40;;;9.15;;
66169;SDS011;66757;44.024;20.456;2023-03-15T11:01:41;17.25;;;11.70;;
66169;SDS011;66757;44.024;20.456;2023-03-15T11:04:13;14.27;;;9.90;;
66169;SDS011;66757;44.024;20.456;2023-03-15T11:06:44;18.23;;;12.75;;
66169;SDS011;66757;44.024;20.456;2023-03-15T11:09:17;29.20;;;18.52;;
66169;SDS011;66757;44.024;20.456;2023-03-15T11:11:53;21.85;;;14.90;;
66169;SDS011;66757;44.024;20.456;2023-03-15T11:14:19;28.02;;;15.88;;
66169;SDS011;66757;44.024;20.456;2023-03-15T11:16:51;26.45;;;15.05;;
66169;SDS011;66757;44.024;20.456;2023-03-15T11:19:17;27.52;;;16.00;;
66169;SDS011;66757;44.024;20.456;2023-03-15T11:21:44;51.65;;;27.92;;
66169;SDS011;66757;44.024;20.456;2023-03-15T11:24:17;30.60;;;16.85;;
66169;SDS011;66757;44.024;20.456;2023-03-15T11:26:44;27.30;;;14.52;;
66169;SDS011;66757;44.024;20.456;2023-03-15T11:31:48;24.05;;;14.90;;
66169;SDS011;66757;44.024;20.456;2023-03-15T11:34:15;25.45;;;13.85;;
66169;SDS011;66757;44.024;20.456;2023-03-15T11:36:46;18.98;;;10.18;;
66169;SDS011;66757;44.024;20.456;2023-03-15T11:39:15;25.50;;;15.07;;
66169;SDS011;66757;44.024;20.456;2023-03-15T11:44:24;12.18;;;7.53;;
66169;SDS011;66757;44.024;20.456;2023-03-15T11:46:53;16.60;;;9.32;;
66169;SDS011;66757;44.024;20.456;2023-03-15T11:52:05;20.30;;;13.02;;
66169;SDS011;66757;44.024;20.456;2023-03-15T11:54:31;13.63;;;9.40;;
66169;SDS011;66757;44.024;20.456;2023-03-15T11:57:00;30.17;;;14.43;;
66169;SDS011;66757;44.024;20.456;2023-03-15T11:59:28;7.32;;;6.05;;
66169;SDS011;66757;44.024;20.456;2023-03-15T12:06:47;17.83;;;9.65;;
66169;SDS011;66757;44.024;20.456;2023-03-15T12:12:00;11.30;;;7.88;;
66169;SDS011;66757;44.024;20.456;2023-03-15T12:16:52;7.80;;;5.32;;
66169;SDS011;66757;44.024;20.456;2023-03-15T12:19:21;8.82;;;6.25;;
66169;SDS011;66757;44.024;20.456;2023-03-15T12:21:49;20.38;;;12.88;;
66169;SDS011;66757;44.024;20.456;2023-03-15T12:24:22;18.63;;;10.88;;
66169;SDS011;66757;44.024;20.456;2023-03-15T12:26:57;13.38;;;9.85;;
66169;SDS011;66757;44.024;20.456;2023-03-15T12:29:23;7.68;;;4.65;;
66169;SDS011;66757;44.024;20.456;2023-03-15T12:31:51;10.90;;;7.03;;
66169;SDS011;66757;44.024;20.456;2023-03-15T12:34:22;12.35;;;6.95;;
66169;SDS011;66757;44.024;20.456;2023-03-15T12:36:48;23.67;;;15.65;;
66169;SDS011;66757;44.024;20.456;2023-03-15T12:41:45;8.02;;;5.10;;
66169;SDS011;66757;44.024;20.456;2023-03-15T12:44:55;20.83;;;11.10;;
66169;SDS011;66757;44.024;20.456;2023-03-15T12:47:06;11.27;;;7.32;;
66169;SDS011;66757;44.024;20.456;2023-03-15T12:49:33;31.77;;;18.48;;
66169;SDS011;66757;44.024;20.456;2023-03-15T12:52:12;18.40;;;11.52;;
66169;SDS011;66757;44.024;20.456;2023-03-15T12:54:54;14.55;;;8.85;;
66169;SDS011;66757;44.024;20.456;2023-03-15T12:57:26;17.20;;;10.05;;
66169;SDS011;66757;44.024;20.456;2023-03-15T13:00:12;21.83;;;12.07;;
66169;SDS011;66757;44.024;20.456;2023-03-15T13:07:51;11.15;;;7.00;;
66169;SDS011;66757;44.024;20.456;2023-03-15T13:13:32;8.48;;;5.05;;
66169;SDS011;66757;44.024;20.456;2023-03-15T13:15:43;10.20;;;7.38;;
66169;SDS011;66757;44.024;20.456;2023-03-15T13:18:19;9.55;;;6.28;;
66169;SDS011;66757;44.024;20.456;2023-03-15T13:43:41;22.92;;;11.77;;
66169;SDS011;66757;44.024;20.456;2023-03-15T13:46:07;39.30;;;21.88;;
66169;SDS011;66757;44.024;20.456;2023-03-15T13:48:33;39.70;;;22.02;;
66169;SDS011;66757;44.024;20.456;2023-03-15T13:51:03;41.20;;;21.45;;
66169;SDS011;66757;44.024;20.456;2023-03-15T13:53:32;21.50;;;10.57;;
66169;SDS011;66757;44.024;20.456;2023-03-15T13:55:58;105.30;;;50.88;;
66169;SDS011;66757;44.024;20.456;2023-03-15T13:58:23;26.50;;;15.75;;
66169;SDS011;66757;44.024;20.456;2023-03-15T14:00:54;39.60;;;20.20;;
66169;SDS011;66757;44.024;20.456;2023-03-15T14:03:20;19.40;;;12.18;;
66169;SDS011;66757;44.024;20.456;2023-03-15T14:05:47;30.13;;;16.75;;
66169;SDS011;66757;44.024;20.456;2023-03-15T14:08:34;22.42;;;12.30;;
66169;SDS011;66757;44.024;20.456;2023-03-15T14:11:04;6.43;;;4.72;;
66169;SDS011;66757;44.024;20.456;2023-03-15T14:13:31;7.43;;;4.45;;
66169;SDS011;66757;44.024;20.456;2023-03-15T14:15:58;16.85;;;10.82;;
66169;SDS011;66757;44.024;20.456;2023-03-15T14:18:24;6.43;;;4.93;;
66169;SDS011;66757;44.024;20.456;2023-03-15T14:20:56;13.15;;;8.50;;
66169;SDS011;66757;44.024;20.456;2023-03-15T14:23:23;15.43;;;9.32;;
66169;SDS011;66757;44.024;20.456;2023-03-15T14:25:49;11.70;;;7.47;;
66169;SDS011;66757;44.024;20.456;2023-03-15T14:28:16;28.00;;;13.68;;
66169;SDS011;66757;44.024;20.456;2023-03-15T14:30:41;36.67;;;18.60;;
66169;SDS011;66757;44.024;20.456;2023-03-15T14:33:21;18.27;;;9.70;;
66169;SDS011;66757;44.024;20.456;2023-03-15T14:35:51;20.75;;;13.98;;
66169;SDS011;66757;44.024;20.456;2023-03-15T14:38:20;83.25;;;43.28;;
66169;SDS011;66757;44.024;20.456;2023-03-15T14:40:45;16.92;;;9.60;;
66169;SDS011;66757;44.024;20.456;2023-03-15T14:43:11;22.55;;;14.43;;
66169;SDS011;66757;44.024;20.456;2023-03-15T14:45:37;8.07;;;5.40;;
66169;SDS011;66757;44.024;20.456;2023-03-15T14:50:43;9.23;;;6.90;;
66169;SDS011;66757;44.024;20.456;2023-03-15T14:53:19;22.35;;;11.52;;
66169;SDS011;66757;44.024;20.456;2023-03-15T14:55:45;6.85;;;4.53;;
66169;SDS011;66757;44.024;20.456;2023-03-15T14:58:11;15.07;;;8.35;;
66169;SDS011;66757;44.024;20.456;2023-03-15T15:00:37;10.50;;;5.18;;
66169;SDS011;66757;44.024;20.456;2023-03-15T15:03:02;9.30;;;5.82;;
66169;SDS011;66757;44.024;20.456;2023-03-15T15:05:32;12.45;;;8.02;;
66169;SDS011;66757;44.024;20.456;2023-03-15T15:08:02;25.23;;;14.32;;
66169;SDS011;66757;44.024;20.456;2023-03-15T15:10:29;93.20;;;52.78;;
66169;SDS011;66757;44.024;20.456;2023-03-15T15:12:54;52.22;;;30.52;;
66169;SDS011;66757;44.024;20.456;2023-03-15T15:15:20;15.85;;;11.13;;
66169;SDS011;66757;44.024;20.456;2023-03-15T15:17:47;19.98;;;11.00;;
66169;SDS011;66757;44.024;20.456;2023-03-15T15:20:13;17.08;;;10.95;;
66169;SDS011;66757;44.024;20.456;2023-03-15T15:22:42;15.43;;;9.48;;
66169;SDS011;66757;44.024;20.456;2023-03-15T15:25:12;18.00;;;11.35;;
66169;SDS011;66757;44.024;20.456;2023-03-15T15:27:38;25.08;;;15.32;;
66169;SDS011;66757;44.024;20.456;2023-03-15T15:30:03;24.98;;;15.23;;
66169;SDS011;66757;44.024;20.456;2023-03-15T15:32:29;16.42;;;9.27;;
66169;SDS011;66757;44.024;20.456;2023-03-15T15:34:57;16.02;;;9.65;;
66169;SDS011;66757;44.024;20.456;2023-03-15T15:37:23;15.68;;;10.68;;